createdAt,value
2017-12-05T00:01:52.282Z,8.87
2017-12-05T00:04:20.127Z,6.10
2017-12-05T00:06:49.007Z,6.00
2017-12-05T00:09:16.925Z,6.83
2017-12-05T00:11:47.201Z,9.50
2017-12-05T00:14:14.917Z,8.13
2017-12-05T00:16:42.667Z,5.70
2017-12-05T00:19:10.505Z,6.17
2017-12-05T00:21:38.147Z,6.23
2017-12-05T00:24:05.808Z,5.63
2017-12-05T00:26:35.429Z,7.27
2017-12-05T00:29:03.526Z,6.73
2017-12-05T00:31:34.250Z,6.30
2017-12-05T00:34:04.373Z,10.53
2017-12-05T00:36:33.479Z,5.70
2017-12-05T00:41:39.491Z,5.83
2017-12-05T00:44:07.759Z,5.27
2017-12-05T00:46:35.919Z,7.00
2017-12-05T00:49:09.666Z,5.50
2017-12-05T00:51:38.755Z,6.10
2017-12-05T00:54:06.458Z,8.27
2017-12-05T00:56:35.929Z,4.87
2017-12-05T00:59:09.336Z,10.67
2017-12-05T01:01:37.962Z,7.20
2017-12-05T01:04:07.351Z,5.80
2017-12-05T01:06:35.964Z,5.03
2017-12-05T01:09:03.672Z,6.47
2017-12-05T01:11:31.989Z,6.70
2017-12-05T01:14:00.881Z,6.50
2017-12-05T01:16:29.202Z,6.30
2017-12-05T01:18:59.267Z,6.23
2017-12-05T01:21:30.015Z,5.70
2017-12-05T01:23:58.852Z,5.43
2017-12-05T01:26:29.252Z,6.40
2017-12-05T01:28:57.092Z,5.50
2017-12-05T01:31:24.632Z,8.70
2017-12-05T01:33:56.313Z,5.47
2017-12-05T01:36:25.020Z,5.30
2017-12-05T01:38:53.917Z,5.20
2017-12-05T01:41:22.112Z,5.30
2017-12-05T01:43:50.745Z,5.10
2017-12-05T01:46:18.422Z,5.70
2017-12-05T01:48:52.282Z,5.07
2017-12-05T01:51:21.395Z,5.90
2017-12-05T01:53:51.962Z,5.30
2017-12-05T01:56:19.721Z,5.70
2017-12-05T01:58:48.063Z,5.70
2017-12-05T02:01:15.912Z,5.63
2017-12-05T02:03:44.674Z,5.20
2017-12-05T02:06:13.227Z,6.43
2017-12-05T02:08:40.917Z,5.70
2017-12-05T02:11:08.538Z,5.20
2017-12-05T02:13:36.219Z,5.97
2017-12-05T02:16:05.851Z,9.87
2017-12-05T02:18:33.686Z,5.80
2017-12-05T02:21:03.413Z,5.60
2017-12-05T02:23:31.074Z,13.77
2017-12-05T02:25:58.722Z,5.70
2017-12-05T02:28:26.339Z,10.53
2017-12-05T02:30:54.801Z,6.60
2017-12-05T02:33:23.774Z,6.40
2017-12-05T02:35:51.932Z,10.27
2017-12-05T02:38:20.778Z,5.67
2017-12-05T02:41:01.979Z,5.90
2017-12-05T02:43:29.927Z,5.33
2017-12-05T02:45:57.799Z,5.83
2017-12-05T02:48:27.117Z,5.13
2017-12-05T02:50:58.726Z,5.90
2017-12-05T02:53:26.713Z,5.97
2017-12-05T02:55:55.083Z,6.77
2017-12-05T02:58:22.824Z,7.43
2017-12-05T03:00:54.047Z,7.60
2017-12-05T03:03:23.474Z,7.83
2017-12-05T03:05:52.182Z,6.47
2017-12-05T03:08:20.057Z,5.63
2017-12-05T03:10:48.436Z,6.07
2017-12-05T03:13:18.002Z,6.03
2017-12-05T03:15:46.606Z,5.50
2017-12-05T03:18:14.676Z,5.87
2017-12-05T03:20:43.133Z,6.17
2017-12-05T03:23:10.783Z,5.47
2017-12-05T03:25:38.867Z,5.47
2017-12-05T03:28:07.551Z,6.93
2017-12-05T03:30:36.099Z,9.33
2017-12-05T03:33:07.542Z,6.97
2017-12-05T03:35:39.292Z,7.10
2017-12-05T03:38:08.865Z,6.43
2017-12-05T03:40:38.575Z,11.07
2017-12-05T03:43:07.242Z,8.50
2017-12-05T03:45:35.993Z,6.03
2017-12-05T03:48:04.538Z,7.17
2017-12-05T03:50:32.877Z,6.10
2017-12-05T03:53:02.392Z,5.90
2017-12-05T03:55:31.284Z,5.27
2017-12-05T03:57:59.009Z,10.80
2017-12-05T04:00:26.703Z,6.80
2017-12-05T04:02:55.217Z,5.73
2017-12-05T04:05:24.679Z,6.47
2017-12-05T04:07:54.720Z,7.57
2017-12-05T04:10:22.350Z,6.43
2017-12-05T04:12:50.975Z,6.67
2017-12-05T04:15:20.401Z,9.07
2017-12-05T04:17:48.070Z,7.00
2017-12-05T04:20:15.811Z,11.50
2017-12-05T04:22:46.389Z,7.10
2017-12-05T04:25:14.791Z,9.33
2017-12-05T04:27:42.885Z,9.57
2017-12-05T04:30:11.140Z,7.87
2017-12-05T04:32:38.720Z,7.97
2017-12-05T04:35:06.324Z,6.53
2017-12-05T04:37:34.677Z,5.83
2017-12-05T04:40:03.257Z,8.80
2017-12-05T04:42:31.856Z,7.33
2017-12-05T04:44:59.419Z,9.97
2017-12-05T04:47:27.026Z,8.00
2017-12-05T04:49:54.613Z,13.30
2017-12-05T04:52:23.100Z,7.80
2017-12-05T04:54:51.268Z,7.60
2017-12-05T04:57:19.503Z,8.30
2017-12-05T04:59:48.726Z,6.87
2017-12-05T05:02:17.360Z,7.77
2017-12-05T05:04:44.943Z,7.33
2017-12-05T05:07:12.590Z,7.10
2017-12-05T05:09:42.424Z,7.83
2017-12-05T05:12:10.828Z,9.90
2017-12-05T05:14:41.941Z,8.37
2017-12-05T05:17:09.545Z,15.30
2017-12-05T05:19:37.746Z,7.33
2017-12-05T05:22:06.204Z,9.37
2017-12-05T05:24:34.580Z,7.97
2017-12-05T05:27:03.525Z,8.30
2017-12-05T05:29:34.271Z,7.40
2017-12-05T05:32:03.127Z,8.10
2017-12-05T05:34:30.926Z,7.87
2017-12-05T05:36:58.636Z,9.27
2017-12-05T05:39:27.560Z,8.50
2017-12-05T05:41:59.014Z,7.67
2017-12-05T05:44:31.344Z,6.97
2017-12-05T05:47:04.463Z,7.43
2017-12-05T05:49:35.981Z,8.87
2017-12-05T05:54:47.275Z,7.97
2017-12-05T05:57:19.889Z,8.00
2017-12-05T05:59:53.400Z,15.27
2017-12-05T06:02:30.133Z,7.90
2017-12-05T06:05:06.257Z,7.27
2017-12-05T06:07:41.137Z,6.90
2017-12-05T06:13:09.344Z,7.03
2017-12-05T06:15:39.210Z,8.30
2017-12-05T06:18:11.153Z,10.73
2017-12-05T06:20:49.625Z,9.27
2017-12-05T06:25:58.461Z,12.47
2017-12-05T06:28:30.623Z,13.47
2017-12-05T06:30:59.271Z,7.90
2017-12-05T06:33:36.540Z,6.97
2017-12-05T06:36:23.459Z,9.77
2017-12-05T06:38:53.770Z,10.43
2017-12-05T06:41:23.229Z,10.63
2017-12-05T06:43:56.542Z,7.93
2017-12-05T06:46:26.178Z,13.63
2017-12-05T06:48:56.526Z,7.20
2017-12-05T06:51:27.604Z,9.17
2017-12-05T06:54:00.702Z,7.97
2017-12-05T06:56:34.600Z,11.23
2017-12-05T06:59:05.336Z,8.67
2017-12-05T07:01:35.788Z,7.80
2017-12-05T07:04:05.747Z,8.87
2017-12-05T07:06:33.539Z,12.97
2017-12-05T07:09:04.549Z,8.67
2017-12-05T07:14:26.073Z,9.90
2017-12-05T07:16:59.930Z,6.73
2017-12-05T07:19:32.217Z,6.87
2017-12-05T07:22:04.052Z,8.33
2017-12-05T07:27:18.608Z,9.50
2017-12-05T07:29:46.630Z,9.30
2017-12-05T07:32:14.557Z,15.10
2017-12-05T07:34:44.151Z,15.00
2017-12-05T07:39:59.636Z,14.60
2017-12-05T07:42:27.441Z,13.37
2017-12-05T07:44:55.340Z,18.50
2017-12-05T07:47:29.851Z,16.73
2017-12-05T07:50:08.887Z,11.13
2017-12-05T07:52:42.994Z,10.50
2017-12-05T07:55:14.930Z,10.80
2017-12-05T07:57:50.734Z,9.67
2017-12-05T08:00:26.912Z,16.33
2017-12-05T08:02:56.869Z,7.83
2017-12-05T08:05:28.346Z,8.20
2017-12-05T08:08:06.590Z,8.50
2017-12-05T08:10:34.316Z,8.03
2017-12-05T08:13:02.216Z,11.47
2017-12-05T08:15:30.288Z,46.07
2017-12-05T08:17:59.351Z,25.53
2017-12-05T08:20:27.535Z,21.83
2017-12-05T08:22:56.940Z,13.00
2017-12-05T08:25:25.844Z,14.33
2017-12-05T08:27:53.993Z,16.03
2017-12-05T08:30:21.764Z,11.30
2017-12-05T08:32:51.168Z,13.00
2017-12-05T08:35:19.627Z,9.80
2017-12-05T08:37:47.485Z,15.43
2017-12-05T08:40:15.284Z,14.77
2017-12-05T08:42:43.271Z,14.80
2017-12-05T08:45:10.976Z,12.27
2017-12-05T08:47:38.943Z,10.80
2017-12-05T08:50:07.304Z,10.87
2017-12-05T08:52:39.151Z,11.17
2017-12-05T08:55:08.755Z,10.47
2017-12-05T08:57:37.048Z,10.10
2017-12-05T09:00:04.822Z,10.93
2017-12-05T09:02:38.200Z,8.27
2017-12-05T09:05:09.404Z,9.00
2017-12-05T09:10:32.598Z,8.37
2017-12-05T09:13:00.546Z,8.20
2017-12-05T09:15:30.563Z,8.57
2017-12-05T09:17:59.612Z,10.97
2017-12-05T09:20:28.180Z,9.13
2017-12-05T09:22:57.142Z,6.27
2017-12-05T09:25:26.728Z,7.20
2017-12-05T09:28:01.522Z,7.87
2017-12-05T09:30:34.008Z,6.33
2017-12-05T09:35:56.403Z,6.40
2017-12-05T09:38:27.235Z,7.50
2017-12-05T09:41:00.730Z,7.63
2017-12-05T09:43:45.240Z,18.27
2017-12-05T09:46:24.261Z,5.80
2017-12-05T09:48:59.488Z,6.40
2017-12-05T09:51:39.289Z,7.70
2017-12-05T09:54:08.742Z,7.60
2017-12-05T09:56:41.002Z,8.63
2017-12-05T09:59:12.241Z,8.73
2017-12-05T10:01:43.670Z,9.17
2017-12-05T10:06:54.636Z,9.60
2017-12-05T10:09:22.332Z,9.97
2017-12-05T10:11:50.421Z,9.67
2017-12-05T10:14:18.396Z,8.27
2017-12-05T10:16:47.197Z,10.27
2017-12-05T10:19:15.902Z,13.03
2017-12-05T10:21:56.519Z,13.70
2017-12-05T10:24:24.131Z,13.40
2017-12-05T10:29:43.852Z,10.10
2017-12-05T10:32:12.855Z,8.80
2017-12-05T10:34:46.469Z,8.73
2017-12-05T10:37:15.132Z,8.60
2017-12-05T10:39:43.011Z,10.37
2017-12-05T10:42:11.532Z,10.40
2017-12-05T10:44:39.417Z,9.53
2017-12-05T10:47:07.194Z,8.67
2017-12-05T10:49:35.726Z,7.30
2017-12-05T10:52:04.240Z,8.00
2017-12-05T10:54:33.016Z,8.67
2017-12-05T10:57:01.606Z,7.90
2017-12-05T10:59:32.151Z,7.97
2017-12-05T11:02:00.318Z,6.90
2017-12-05T11:04:33.323Z,7.40
2017-12-05T11:07:26.727Z,8.13
2017-12-05T11:10:01.892Z,7.53
2017-12-05T11:12:43.595Z,7.43
2017-12-05T11:17:57.053Z,6.77
2017-12-05T11:20:34.021Z,6.60
2017-12-05T11:23:12.796Z,5.83
2017-12-05T11:25:47.015Z,7.87
2017-12-05T11:28:21.880Z,7.20
2017-12-05T11:30:55.610Z,8.30
2017-12-05T11:33:33.035Z,7.40
2017-12-05T11:38:52.777Z,11.23
2017-12-05T11:41:22.835Z,8.30
2017-12-05T11:43:51.002Z,8.83
2017-12-05T11:46:19.087Z,10.40
2017-12-05T11:48:46.759Z,8.10
2017-12-05T11:51:14.697Z,8.20
2017-12-05T11:53:42.373Z,8.40
2017-12-05T11:56:11.833Z,8.33
2017-12-05T11:58:42.286Z,11.20
2017-12-05T12:01:11.530Z,8.93
2017-12-05T12:03:39.303Z,9.73
2017-12-05T12:06:08.009Z,12.07
2017-12-05T12:08:35.904Z,9.50
2017-12-05T12:11:03.618Z,9.80
2017-12-05T12:13:32.068Z,11.00
2017-12-05T12:16:08.867Z,9.33
2017-12-05T12:18:39.024Z,11.33
2017-12-05T12:21:18.407Z,11.50
2017-12-05T12:23:54.481Z,12.10
2017-12-05T12:26:27.813Z,11.37
2017-12-05T12:28:57.407Z,10.90
2017-12-05T12:31:28.440Z,14.23
2017-12-05T12:36:32.232Z,10.43
2017-12-05T12:39:00.812Z,11.00
2017-12-05T12:41:28.480Z,10.70
2017-12-05T12:43:56.460Z,15.40
2017-12-05T12:46:24.112Z,11.80
2017-12-05T12:48:52.560Z,12.00
2017-12-05T12:51:21.364Z,11.70
2017-12-05T12:53:49.284Z,11.87
2017-12-05T12:56:18.329Z,13.50
2017-12-05T12:58:46.229Z,11.17
2017-12-05T13:01:15.310Z,11.00
2017-12-05T13:03:44.714Z,11.13
2017-12-05T13:06:14.343Z,13.73
2017-12-05T13:11:28.706Z,12.33
2017-12-05T13:13:57.614Z,11.97
2017-12-05T13:16:27.473Z,12.30
2017-12-05T13:18:56.547Z,12.77
2017-12-05T13:21:24.564Z,13.83
2017-12-05T13:23:52.961Z,17.07
2017-12-05T13:26:30.739Z,11.60
2017-12-05T13:29:00.940Z,12.10
2017-12-05T13:31:28.983Z,11.63
2017-12-05T13:33:56.716Z,12.97
2017-12-05T13:36:25.296Z,13.47
2017-12-05T13:38:53.015Z,13.47
2017-12-05T13:41:20.964Z,11.80
2017-12-05T13:43:52.478Z,12.70
2017-12-05T13:46:28.681Z,13.03
2017-12-05T13:49:03.217Z,14.43
2017-12-05T13:51:30.977Z,14.50
2017-12-05T13:54:09.284Z,11.77
2017-12-05T13:56:43.575Z,11.23
2017-12-05T13:59:19.250Z,12.80
2017-12-05T14:01:56.565Z,11.33
2017-12-05T14:07:05.322Z,14.10
2017-12-05T14:09:40.529Z,12.97
2017-12-05T14:12:15.701Z,16.50
2017-12-05T14:14:44.154Z,13.13
2017-12-05T14:17:12.932Z,19.27
2017-12-05T14:19:41.911Z,16.20
2017-12-05T14:22:09.762Z,10.10
2017-12-05T14:24:37.654Z,15.40
2017-12-05T14:27:05.573Z,11.83
2017-12-05T14:29:34.489Z,13.10
2017-12-05T14:32:02.280Z,16.13
2017-12-05T14:34:33.184Z,13.60
2017-12-05T14:37:03.693Z,13.30
2017-12-05T14:39:39.298Z,13.47
2017-12-05T14:42:08.766Z,13.80
2017-12-05T14:47:13.378Z,12.70
2017-12-05T14:49:44.004Z,13.77
2017-12-05T14:52:19.157Z,16.30
2017-12-05T14:54:56.316Z,13.30
2017-12-05T14:57:29.216Z,13.07
2017-12-05T15:00:00.638Z,15.17
2017-12-05T15:02:29.308Z,14.63
2017-12-05T15:04:57.052Z,12.00
2017-12-05T15:07:27.138Z,14.50
2017-12-05T15:09:56.289Z,16.00
2017-12-05T15:12:25.162Z,16.80
2017-12-05T15:14:54.744Z,16.90
2017-12-05T15:17:23.515Z,17.13
2017-12-05T15:19:51.216Z,14.73
2017-12-05T15:22:21.982Z,16.93
2017-12-05T15:24:50.895Z,14.83
2017-12-05T15:27:20.776Z,17.53
2017-12-05T15:29:50.478Z,22.07
2017-12-05T15:32:18.430Z,22.40
2017-12-05T15:34:47.273Z,17.93
2017-12-05T15:37:14.938Z,27.70
2017-12-05T15:39:42.865Z,25.00
2017-12-05T15:42:10.914Z,21.90
2017-12-05T15:44:39.250Z,25.23
2017-12-05T15:47:07.145Z,24.20
2017-12-05T15:49:35.082Z,27.90
2017-12-05T15:52:04.672Z,24.10
2017-12-05T15:54:32.439Z,24.23
2017-12-05T15:57:01.411Z,22.03
2017-12-05T15:59:31.969Z,27.03
2017-12-05T16:02:00.608Z,23.20
2017-12-05T16:04:29.164Z,22.40
2017-12-05T16:07:05.024Z,29.50
2017-12-05T16:09:33.210Z,36.07
2017-12-05T16:12:01.387Z,30.40
2017-12-05T16:14:29.757Z,36.30
2017-12-05T16:16:58.619Z,30.33
2017-12-05T16:19:28.676Z,32.00
2017-12-05T16:27:21.002Z,37.23
2017-12-05T16:32:37.838Z,34.83
2017-12-05T16:38:25.802Z,38.13
2017-12-05T16:40:58.560Z,34.30
2017-12-05T16:43:28.861Z,35.20
2017-12-05T16:46:01.429Z,29.93
2017-12-05T16:48:34.406Z,32.60
2017-12-05T16:51:10.385Z,31.30
2017-12-05T16:53:42.523Z,31.50
2017-12-05T16:56:14.503Z,32.10
2017-12-05T16:58:45.910Z,36.20
2017-12-05T17:01:32.830Z,37.00
2017-12-05T17:07:11.507Z,45.03
2017-12-05T17:12:23.052Z,40.13
2017-12-05T17:14:58.570Z,33.20
2017-12-05T17:20:15.511Z,33.87
2017-12-05T17:22:47.377Z,41.23
2017-12-05T17:25:21.198Z,38.87
2017-12-05T17:27:55.609Z,31.43
2017-12-05T17:30:29.521Z,38.43
2017-12-05T17:33:02.811Z,36.40
2017-12-05T17:35:36.208Z,35.87
2017-12-05T17:38:06.719Z,42.50
2017-12-05T17:40:38.751Z,37.77
2017-12-05T17:43:09.923Z,39.80
2017-12-05T17:45:43.840Z,42.83
2017-12-05T17:48:14.386Z,39.13
2017-12-05T17:50:43.332Z,38.37
2017-12-05T17:53:12.611Z,44.17
2017-12-05T17:56:00.195Z,39.57
2017-12-05T17:58:32.721Z,39.00
2017-12-05T18:03:38.490Z,39.33
2017-12-05T18:06:14.612Z,38.00
2017-12-05T18:08:52.247Z,43.27
2017-12-05T18:11:28.909Z,45.17
2017-12-05T18:14:10.997Z,44.83
2017-12-05T18:16:51.522Z,44.43
2017-12-05T18:19:26.957Z,47.40
2017-12-05T18:21:56.923Z,44.00
2017-12-05T18:24:28.316Z,48.47
2017-12-05T18:26:59.976Z,55.43
2017-12-05T18:29:36.336Z,50.60
2017-12-05T18:32:07.900Z,47.07
2017-12-05T18:34:39.098Z,52.23
2017-12-05T18:39:46.335Z,54.40
2017-12-05T18:42:15.649Z,46.63
2017-12-05T18:44:51.383Z,49.53
2017-12-05T18:47:26.817Z,44.00
2017-12-05T18:49:57.830Z,50.83
2017-12-05T18:52:26.921Z,41.30
2017-12-05T18:55:08.380Z,46.67
2017-12-05T18:57:36.928Z,45.70
2017-12-05T19:00:11.675Z,37.40
2017-12-05T19:02:40.112Z,36.73
2017-12-05T19:05:11.333Z,33.57
2017-12-05T19:07:45.549Z,24.27
2017-12-05T19:10:18.238Z,23.60
2017-12-05T19:12:50.928Z,19.37
2017-12-05T19:15:24.415Z,21.20
2017-12-05T19:17:57.359Z,20.03
2017-12-05T19:20:29.776Z,20.00
2017-12-05T19:25:35.300Z,20.20
2017-12-05T19:28:09.306Z,21.00
2017-12-05T19:30:38.137Z,18.23
2017-12-05T19:33:14.736Z,25.53
2017-12-05T19:35:53.058Z,27.63
2017-12-05T19:38:32.008Z,24.53
2017-12-05T19:41:06.213Z,21.17
2017-12-05T19:43:40.172Z,24.77
2017-12-05T19:46:11.154Z,25.70
2017-12-05T19:48:42.532Z,29.43
2017-12-05T19:51:10.665Z,36.93
2017-12-05T19:53:42.625Z,38.70
2017-12-05T19:56:18.579Z,34.57
2017-12-05T19:58:47.947Z,32.87
2017-12-05T20:01:20.325Z,32.33
2017-12-05T20:03:52.942Z,21.23
2017-12-05T20:06:28.777Z,25.70
2017-12-05T20:08:56.585Z,31.73
2017-12-05T20:11:28.168Z,30.57
2017-12-05T20:16:51.535Z,30.53
2017-12-05T20:22:06.711Z,30.07
2017-12-05T20:24:37.712Z,23.13
2017-12-05T20:27:11.749Z,25.20
2017-12-05T20:29:42.011Z,24.37
2017-12-05T20:32:10.339Z,23.43
2017-12-05T20:34:39.781Z,18.43
2017-12-05T20:37:13.528Z,16.63
2017-12-05T20:39:47.473Z,15.80
2017-12-05T20:42:16.519Z,17.40
2017-12-05T20:44:45.096Z,22.70
2017-12-05T20:49:52.117Z,23.77
2017-12-05T20:52:22.089Z,23.97
2017-12-05T20:54:54.670Z,20.87
2017-12-05T21:00:04.234Z,19.93
2017-12-05T21:02:43.885Z,20.53
2017-12-05T21:05:17.355Z,21.87
2017-12-05T21:07:47.536Z,21.47
2017-12-05T21:10:18.808Z,21.77
2017-12-05T21:12:54.791Z,19.10
2017-12-05T21:15:22.936Z,24.10
2017-12-05T21:17:52.837Z,28.00
2017-12-05T21:20:31.667Z,33.37
2017-12-05T21:23:08.365Z,37.07
2017-12-05T21:25:36.857Z,31.97
2017-12-05T21:28:05.711Z,28.07
2017-12-05T21:30:35.802Z,33.60
2017-12-05T21:33:08.358Z,29.37
2017-12-05T21:35:38.979Z,27.23
2017-12-05T21:40:53.660Z,29.97
2017-12-05T21:43:29.547Z,31.23
2017-12-05T21:45:59.509Z,28.50
2017-12-05T21:48:28.106Z,28.47
2017-12-05T21:51:06.834Z,31.23
2017-12-05T21:53:41.067Z,24.13
2017-12-05T21:56:13.958Z,27.17
2017-12-05T22:01:21.757Z,26.17
2017-12-05T22:03:54.792Z,28.93
2017-12-05T22:09:02.260Z,27.50
2017-12-05T22:11:33.014Z,22.80
2017-12-05T22:19:14.212Z,22.20
2017-12-05T22:21:42.794Z,22.53
2017-12-05T22:24:12.290Z,23.17
2017-12-05T22:26:41.532Z,20.50
2017-12-05T22:29:10.488Z,25.87
2017-12-05T22:31:52.876Z,20.67
2017-12-05T22:34:28.688Z,23.10
2017-12-05T22:37:02.168Z,22.27
2017-12-05T22:39:31.209Z,20.90
2017-12-05T22:42:00.440Z,20.03
2017-12-05T22:44:28.495Z,20.10
2017-12-05T22:46:59.539Z,25.60
2017-12-05T22:49:28.478Z,22.47
2017-12-05T22:51:57.351Z,27.30
2017-12-05T22:54:26.071Z,33.17
2017-12-05T22:56:55.705Z,28.93
2017-12-05T22:59:25.686Z,26.30
2017-12-05T23:01:54.549Z,31.60
2017-12-05T23:04:22.527Z,24.07
2017-12-05T23:06:52.721Z,27.07
2017-12-05T23:09:20.669Z,25.00
2017-12-05T23:11:48.526Z,31.03
2017-12-05T23:14:18.596Z,26.90
2017-12-05T23:16:49.367Z,30.00
2017-12-05T23:19:18.968Z,29.37
2017-12-05T23:21:47.599Z,18.00
2017-12-05T23:24:16.660Z,19.73
2017-12-05T23:26:44.459Z,23.40
2017-12-05T23:29:12.177Z,22.80
2017-12-05T23:31:40.595Z,26.90
2017-12-05T23:34:08.986Z,24.50
2017-12-05T23:36:38.281Z,31.10
2017-12-05T23:39:05.996Z,31.37
2017-12-05T23:41:34.557Z,35.17
2017-12-05T23:44:02.211Z,35.73
2017-12-05T23:46:29.863Z,37.90
2017-12-05T23:48:59.962Z,34.40
2017-12-05T23:51:27.692Z,32.40
2017-12-05T23:53:57.390Z,39.43
2017-12-05T23:56:25.135Z,32.17
2017-12-05T23:58:52.747Z,32.70
